Time;durP1;ratioP1;P1;durP2;ratioP2;P2;SDS_P1;SDS_P2;PMS_P1;PMS_P2;Temp;Humidity;BMP_temperature;BMP_pressure;BME280_temperature;BME280_humidity;BME280_pressure;Samples;Min_cycle;Max_cycle;Signal;HPM_P1;HPM_P2
2022/05/31 00:02:13;;;;;;;4.35;3.05;;;;;;;7.66;73.55;100992.16;7398674;19;20023;-67
2022/05/31 00:04:41;;;;;;;3.88;3.38;;;;;;;7.63;73.42;100995.66;7401476;19;20022;-68
2022/05/31 00:07:09;;;;;;;3.90;3.05;;;;;;;7.59;73.57;100996.53;7401717;19;20031;-68
2022/05/31 00:09:38;;;;;;;5.32;3.10;;;;;;;7.56;73.86;101001.78;7399934;19;20023;-67
2022/05/31 00:12:07;;;;;;;8.10;3.17;;;;;;;7.53;74.01;100996.56;7400648;19;20512;-68
2022/05/31 00:14:35;;;;;;;3.70;3.40;;;;;;;7.50;74.08;101001.81;7400987;19;20019;-68
2022/05/31 00:17:04;;;;;;;4.95;3.20;;;;;;;7.45;74.23;100996.59;7398299;19;20430;-68
2022/05/31 00:19:35;;;;;;;5.88;3.05;;;;;;;7.42;74.25;100999.25;7398069;19;20027;-68
2022/05/31 00:22:07;;;;;;;5.85;3.20;;;;;;;7.38;74.49;100999.25;7398532;19;20027;-68
2022/05/31 00:24:36;;;;;;;5.60;3.25;;;;;;;7.33;74.51;100994.06;7401177;19;20018;-67
2022/05/31 00:27:04;;;;;;;7.22;4.72;;;;;;;7.29;74.30;100997.56;7400614;19;20073;-68
2022/05/31 00:29:33;;;;;;;7.32;4.15;;;;;;;7.24;74.68;100994.97;7397795;19;20021;-68
2022/05/31 00:32:04;;;;;;;7.85;5.53;;;;;;;7.22;74.70;100990.63;7400040;19;20396;-67
2022/05/31 00:34:37;;;;;;;6.75;5.13;;;;;;;7.14;74.92;100983.69;7400892;19;20023;-68
2022/05/31 00:37:07;;;;;;;10.25;7.20;;;;;;;7.13;74.65;100997.63;7400735;19;20026;-68
2022/05/31 00:39:35;;;;;;;7.57;6.30;;;;;;;7.11;74.97;101003.72;7397633;19;20018;-68
2022/05/31 00:42:07;;;;;;;11.73;8.98;;;;;;;7.07;74.90;101002.84;7400078;19;20031;-68
2022/05/31 00:44:37;;;;;;;15.27;11.38;;;;;;;7.03;75.11;100998.53;7400510;19;20022;-68
2022/05/31 00:47:09;;;;;;;14.60;12.35;;;;;;;7.00;75.20;101004.63;7400456;19;20040;-69
2022/05/31 00:49:42;;;;;;;16.95;13.35;;;;;;;6.98;75.43;100998.53;7396926;19;20481;-69
2022/05/31 00:52:17;;;;;;;21.97;16.30;;;;;;;6.95;75.46;100997.66;7400146;19;20035;-67
2022/05/31 00:54:55;;;;;;;23.50;16.23;;;;;;;6.92;75.54;100992.47;7397210;19;20429;-69
2022/05/31 00:57:25;;;;;;;20.52;15.55;;;;;;;6.89;75.52;101003.78;7399675;19;20006;-69
2022/05/31 00:59:57;;;;;;;20.90;14.80;;;;;;;6.86;75.39;100998.56;7398158;19;20035;-69
2022/05/31 01:02:26;;;;;;;23.17;17.15;;;;;;;6.82;75.49;101000.31;7398260;19;20384;-67
2022/05/31 01:05:01;;;;;;;31.23;23.08;;;;;;;6.79;75.71;100992.50;7399329;19;20022;-67
2022/05/31 01:07:30;;;;;;;31.48;23.77;;;;;;;6.74;75.83;100994.25;7399762;19;20018;-67
2022/05/31 01:09:58;;;;;;;31.13;23.15;;;;;;;6.73;75.97;100994.25;7397792;19;20022;-68
2022/05/31 01:12:28;;;;;;;30.05;22.58;;;;;;;6.70;75.95;100995.13;7399065;19;20014;-68
2022/05/31 01:14:56;;;;;;;34.05;25.17;;;;;;;6.68;75.96;100991.63;7399473;19;20423;-68
2022/05/31 01:17:26;;;;;;;36.53;26.35;;;;;;;6.65;76.14;100989.91;7398916;19;20022;-68
2022/05/31 01:20:07;;;;;;;37.08;27.00;;;;;;;6.63;76.33;100996.84;7396431;19;20026;-68
2022/05/31 01:22:39;;;;;;;40.70;29.05;;;;;;;6.60;76.41;100996.00;7399034;19;20471;-68
2022/05/31 01:25:19;;;;;;;39.95;27.13;;;;;;;6.57;76.26;100999.50;7398409;19;20519;-68
2022/05/31 01:27:55;;;;;;;36.08;26.15;;;;;;;6.53;76.31;100997.75;7396857;19;20031;-68
2022/05/31 01:30:24;;;;;;;34.17;23.27;;;;;;;6.50;76.47;101002.97;7396964;19;20026;-68
2022/05/31 01:33:00;;;;;;;28.70;20.48;;;;;;;6.48;76.67;100999.47;7396147;19;20022;-68
2022/05/31 01:35:33;;;;;;;18.83;14.05;;;;;;;6.45;76.62;100997.75;7398852;19;20022;-68
2022/05/31 01:38:07;;;;;;;20.15;13.38;;;;;;;6.43;76.60;101001.22;7398318;19;20032;-68
2022/05/31 01:40:57;;;;;;;14.75;10.10;;;;;;;6.40;76.76;101003.84;7396568;19;20036;-67
2022/05/31 01:43:25;;;;;;;14.38;9.88;;;;;;;6.36;76.82;101008.19;7397763;19;20481;-68
2022/05/31 01:45:58;;;;;;;12.98;9.07;;;;;;;6.32;76.99;101009.91;7398048;19;20023;-67
2022/05/31 01:48:28;;;;;;;13.65;8.85;;;;;;;6.31;77.04;101013.38;7398222;19;20039;-67
2022/05/31 01:50:59;;;;;;;14.77;9.70;;;;;;;6.29;77.14;101006.44;7395959;19;20018;-67
2022/05/31 01:53:27;;;;;;;12.73;9.07;;;;;;;6.26;77.21;101002.09;7395579;19;20014;-67
2022/05/31 01:55:56;;;;;;;18.30;11.25;;;;;;;6.24;77.09;101009.03;7397739;19;20035;-67
2022/05/31 01:58:27;;;;;;;25.70;16.13;;;;;;;6.22;77.21;101004.69;7395500;19;20019;-67
2022/05/31 02:00:56;;;;;;;36.53;24.17;;;;;;;6.20;77.26;101009.91;7395697;19;20022;-67
2022/05/31 02:03:25;;;;;;;32.25;23.98;;;;;;;6.17;77.18;101002.09;7395518;19;20031;-67
2022/05/31 02:05:55;;;;;;;38.10;25.08;;;;;;;6.15;77.21;101006.44;7395460;19;20031;-67
2022/05/31 02:08:29;;;;;;;29.15;19.50;;;;;;;6.11;77.39;101007.31;7397719;19;20031;-68
2022/05/31 02:10:58;;;;;;;21.60;15.27;;;;;;;6.08;77.35;100999.47;7395469;19;20040;-67
2022/05/31 02:13:27;;;;;;;25.75;17.15;;;;;;;6.04;77.75;101011.66;7396947;19;20035;-68
2022/05/31 02:15:57;;;;;;;29.17;17.65;;;;;;;6.00;77.69;101000.34;7396953;19;20070;-68
2022/05/31 02:19:15;;;;;;;33.88;21.40;;;;;;;5.98;77.56;101004.69;7396630;19;20015;-70
2022/05/31 02:21:13;;;;;;;33.22;22.55;;;;;;;5.95;77.62;101008.97;7397250;19;20025;-69
2022/05/31 02:23:44;;;;;;;35.17;23.92;;;;;;;5.93;77.66;101015.94;7397140;19;20022;-68
2022/05/31 02:26:12;;;;;;;30.08;19.52;;;;;;;5.90;77.75;101006.34;7397050;19;20018;-68
2022/05/31 02:28:40;;;;;;;26.92;19.10;;;;;;;5.87;77.72;100999.41;7394674;19;20384;-68
2022/05/31 02:31:08;;;;;;;19.85;12.63;;;;;;;5.86;77.90;101007.22;7396185;19;20022;-68
2022/05/31 02:33:36;;;;;;;16.70;11.63;;;;;;;5.79;77.67;100997.69;7396080;19;20031;-68
2022/05/31 02:36:05;;;;;;;18.33;12.45;;;;;;;5.81;77.90;101003.75;7395662;19;20392;-68
2022/05/31 02:38:33;;;;;;;17.70;12.20;;;;;;;5.81;77.87;101008.97;7395042;19;20031;-68
2022/05/31 02:41:04;;;;;;;17.38;11.68;;;;;;;5.78;78.13;101008.97;7396206;19;20035;-68
2022/05/31 02:43:38;;;;;;;15.65;11.25;;;;;;;5.77;78.02;101008.06;7394825;19;20010;-67
2022/05/31 02:46:07;;;;;;;20.95;12.65;;;;;;;5.77;78.18;101007.22;7394783;19;20030;-68
2022/05/31 02:48:35;;;;;;;25.80;14.68;;;;;;;5.76;78.18;101006.34;7395704;19;20018;-69
2022/05/31 02:51:03;;;;;;;21.17;14.30;;;;;;;5.76;78.11;101005.47;7393943;19;20485;-68
2022/05/31 02:53:31;;;;;;;26.55;18.17;;;;;;;5.75;78.36;101008.94;7393751;19;20011;-68
2022/05/31 02:56:00;;;;;;;35.83;21.67;;;;;;;5.75;78.11;101003.72;7394266;19;20419;-68
2022/05/31 02:58:31;;;;;;;46.15;28.20;;;;;;;5.73;78.42;101006.34;7393782;19;20022;-68
2022/05/31 03:00:59;;;;;;;46.92;30.35;;;;;;;5.73;78.35;101005.47;7393889;19;20026;-68
2022/05/31 03:03:27;;;;;;;48.13;28.42;;;;;;;5.72;78.32;101004.59;7395542;19;20022;-68
2022/05/31 03:05:56;;;;;;;39.90;25.55;;;;;;;5.70;78.32;101001.13;7393865;19;20031;-68
2022/05/31 03:08:24;;;;;;;34.88;22.00;;;;;;;5.70;78.70;101011.56;7395418;19;20085;-68
2022/05/31 03:10:55;;;;;;;30.58;19.63;;;;;;;5.69;78.52;101010.66;7393506;19;20022;-67
2022/05/31 03:13:28;;;;;;;29.92;17.35;;;;;;;5.70;78.80;101016.75;7395536;19;20019;-68
2022/05/31 03:16:05;;;;;;;21.27;13.40;;;;;;;5.69;78.64;101008.06;7393812;19;20035;-68
2022/05/31 03:18:37;;;;;;;15.40;9.65;;;;;;;5.70;78.75;101011.56;7393509;19;20014;-68
2022/05/31 03:21:10;;;;;;;11.20;7.70;;;;;;;5.69;78.66;101010.66;7393722;19;20022;-68
2022/05/31 03:23:44;;;;;;;11.23;8.70;;;;;;;5.70;78.58;101014.16;7395494;19;20018;-68
2022/05/31 03:26:15;;;;;;;11.57;8.02;;;;;;;5.70;78.60;101011.56;7397741;19;20032;-67
2022/05/31 03:28:43;;;;;;;12.88;9.95;;;;;;;5.71;78.47;101023.69;7402417;19;20023;-68
2022/05/31 03:31:15;;;;;;;17.88;11.77;;;;;;;5.70;78.46;101012.41;7401958;19;20399;-68
2022/05/31 03:33:43;;;;;;;22.55;12.38;;;;;;;5.71;78.41;101013.25;7402242;19;20106;-68
2022/05/31 03:36:11;;;;;;;22.20;14.95;;;;;;;5.70;78.59;101015.00;7401712;19;20035;-68
2022/05/31 03:38:39;;;;;;;22.50;15.02;;;;;;;5.73;78.67;101013.28;7401079;19;20014;-68
2022/05/31 03:41:07;;;;;;;22.13;12.65;;;;;;;5.73;78.60;101019.34;7401761;19;20027;-68
2022/05/31 03:43:38;;;;;;;18.08;11.55;;;;;;;5.75;78.64;101016.75;7401719;19;20031;-67
2022/05/31 03:46:06;;;;;;;20.75;13.52;;;;;;;5.76;78.54;101016.75;7402226;19;20022;-66
2022/05/31 03:48:37;;;;;;;22.17;14.35;;;;;;;5.77;78.77;101015.88;7401753;19;20018;-68
2022/05/31 03:51:07;;;;;;;27.00;17.70;;;;;;;5.80;78.57;101022.84;7401436;19;20386;-68
2022/05/31 03:53:42;;;;;;;27.23;17.67;;;;;;;5.84;78.81;101030.66;7399545;19;20035;-67
2022/05/31 03:56:12;;;;;;;37.35;24.50;;;;;;;5.85;78.92;101021.09;7398894;19;20018;-67
2022/05/31 03:58:41;;;;;;;41.28;25.42;;;;;;;5.87;78.66;101020.25;7401193;19;20031;-70
2022/05/31 04:01:10;;;;;;;39.60;26.13;;;;;;;5.91;78.95;101021.13;7398541;19;20015;-68
2022/05/31 04:03:41;;;;;;;36.60;24.00;;;;;;;5.95;78.86;101020.28;7400979;19;20035;-68
2022/05/31 04:06:10;;;;;;;16.25;11.38;;;;;;;5.98;78.84;101025.53;7398632;19;20026;-67
2022/05/31 04:08:38;;;;;;;20.88;12.93;;;;;;;6.02;78.77;101032.47;7400879;19;20015;-68
2022/05/31 04:11:06;;;;;;;30.50;19.50;;;;;;;6.07;78.91;101031.63;7400738;19;20027;-67
2022/05/31 04:13:34;;;;;;;28.20;19.77;;;;;;;6.09;78.88;101028.16;7400833;19;20018;-67
2022/05/31 04:16:08;;;;;;;22.55;14.25;;;;;;;6.13;78.84;101029.00;7400221;19;20398;-67
2022/05/31 04:18:37;;;;;;;19.17;14.38;;;;;;;6.16;78.62;101023.81;7397988;19;20040;-68
2022/05/31 04:21:11;;;;;;;20.30;15.10;;;;;;;6.21;78.67;101026.44;7400579;19;20043;-67
2022/05/31 04:26:20;;;;;;;18.48;13.02;;;;;;;6.29;78.60;101028.19;7400543;19;20009;-67
2022/05/31 04:28:48;;;;;;;16.75;11.93;;;;;;;6.33;78.82;101024.69;7399531;19;20024;-67
2022/05/31 04:31:17;;;;;;;12.80;9.27;;;;;;;6.40;78.73;101024.69;7397500;19;20022;-68
2022/05/31 04:33:45;;;;;;;11.60;8.48;;;;;;;6.45;78.56;101021.22;7399527;19;20018;-68
2022/05/31 04:36:18;;;;;;;9.38;7.20;;;;;;;6.50;78.80;101022.06;7396930;19;20026;-68
2022/05/31 04:38:46;;;;;;;10.68;6.70;;;;;;;6.56;78.75;101026.44;7398133;19;20419;-68
2022/05/31 04:41:20;;;;;;;10.20;7.28;;;;;;;6.61;78.60;101032.50;7399604;19;20023;-68
2022/05/31 04:43:48;;;;;;;;;;;;;;;6.66;78.97;101033.38;7401164;19;20036;-68
2022/05/31 04:46:19;;;;;;;21.40;9.10;;;;;;;6.71;78.43;101032.50;7399630;19;19930;-67
2022/05/31 04:48:48;;;;;;;12.63;8.70;;;;;;;6.75;78.60;101032.50;7398951;19;20014;-68
2022/05/31 04:51:18;;;;;;;20.17;11.25;;;;;;;6.79;78.64;101028.16;7399513;19;20024;-69
2022/05/31 04:53:47;;;;;;;19.25;13.57;;;;;;;6.86;78.72;101027.25;7399163;19;20419;-67
2022/05/31 04:56:17;;;;;;;24.42;15.38;;;;;;;6.93;78.61;101034.19;7398972;19;20018;-67
2022/05/31 04:58:45;;;;;;;21.38;14.50;;;;;;;6.98;78.56;101032.44;7396360;19;20481;-66
2022/05/31 05:01:13;;;;;;;23.70;16.63;;;;;;;7.05;78.48;101028.09;7397273;19;20018;-66
2022/05/31 05:03:44;;;;;;;20.90;14.73;;;;;;;7.11;78.61;101027.19;7397412;19;20023;-67
2022/05/31 05:06:14;;;;;;;16.38;11.40;;;;;;;7.18;78.78;101026.31;7395984;19;20018;-67
2022/05/31 05:08:45;;;;;;;15.02;11.05;;;;;;;7.23;78.52;101029.78;7396265;19;20021;-68
2022/05/31 05:11:15;;;;;;;13.02;9.32;;;;;;;7.29;78.56;101023.66;7398099;19;20022;-68
2022/05/31 05:13:44;;;;;;;12.98;9.63;;;;;;;7.34;78.81;101020.16;7396238;19;20018;-67
2022/05/31 05:16:14;;;;;;;8.88;6.70;;;;;;;7.43;78.61;101019.25;7397874;19;20027;-67
2022/05/31 05:18:43;;;;;;;8.73;5.50;;;;;;;7.50;78.75;101017.47;7396779;19;20035;-75
2022/05/31 05:21:14;;;;;;;8.75;5.30;;;;;;;7.57;78.71;101013.09;7395281;19;20018;-69
2022/05/31 05:23:45;;;;;;;6.45;4.90;;;;;;;7.65;78.52;101011.31;7397756;19;20026;-69
2022/05/31 05:26:14;;;;;;;7.97;4.72;;;;;;;7.75;78.31;101017.38;7398552;19;20018;-68
2022/05/31 05:31:27;;;;;;;9.98;7.43;;;;;;;7.90;78.30;101012.03;7398226;19;20015;-69
2022/05/31 05:33:55;;;;;;;14.82;9.63;;;;;;;8.00;78.18;101012.84;7397930;19;20018;-70
2022/05/31 05:36:24;;;;;;;11.13;5.20;;;;;;;8.07;77.94;101016.28;7397490;19;20375;-70
2022/05/31 05:38:56;;;;;;;12.02;6.63;;;;;;;8.13;77.83;101016.25;7397344;19;20023;-69
2022/05/31 05:41:26;;;;;;;8.68;6.57;;;;;;;8.22;77.87;101026.63;7397379;19;20035;-70
2022/05/31 05:43:54;;;;;;;5.85;3.88;;;;;;;8.30;77.78;101023.94;7395411;19;20027;-70
2022/05/31 05:46:24;;;;;;;6.00;3.53;;;;;;;8.39;77.62;101030.84;7397880;19;20022;-70
2022/05/31 05:48:53;;;;;;;6.03;4.75;;;;;;;8.47;77.58;101031.69;7396093;19;20019;-70
2022/05/31 05:51:23;;;;;;;6.55;5.15;;;;;;;8.56;77.63;101029.00;7396537;19;20035;-70
2022/05/31 05:53:55;;;;;;;8.15;5.63;;;;;;;8.66;77.54;101027.16;7396838;19;20014;-70
2022/05/31 05:56:23;;;;;;;5.85;3.40;;;;;;;8.75;77.49;101029.69;7395934;19;20030;-70
2022/05/31 05:58:52;;;;;;;3.13;2.78;;;;;;;8.84;77.32;101022.66;7396847;19;20022;-70
2022/05/31 06:01:24;;;;;;;6.82;3.60;;;;;;;8.92;77.08;101011.22;7395053;19;20019;-70
2022/05/31 06:03:57;;;;;;;6.85;3.58;;;;;;;9.03;76.98;101018.09;7397606;19;20019;-66
2022/05/31 06:06:27;;;;;;;4.80;3.38;;;;;;;9.11;76.60;101019.75;7397309;19;20014;-67
2022/05/31 06:09:08;;;;;;;3.72;2.22;;;;;;;9.22;76.23;101021.34;7396149;19;20043;-67
2022/05/31 06:11:42;;;;;;;3.85;2.53;;;;;;;9.33;75.74;101019.47;7394676;19;20086;-67
2022/05/31 06:14:15;;;;;;;5.20;2.80;;;;;;;9.41;75.38;101016.75;7395770;19;20423;-68
2022/05/31 06:16:47;;;;;;;3.75;2.35;;;;;;;9.52;75.13;101019.25;7394799;19;20022;-70
2022/05/31 06:19:20;;;;;;;2.50;2.10;;;;;;;9.65;74.63;101027.81;7395652;19;20428;-70
2022/05/31 06:21:50;;;;;;;4.63;2.97;;;;;;;9.74;74.35;101028.56;7394933;19;20026;-70
2022/05/31 06:24:23;;;;;;;4.47;2.70;;;;;;;9.87;73.91;101031.00;7396048;19;20064;-66
2022/05/31 06:26:51;;;;;;;4.38;2.53;;;;;;;9.98;73.58;101030.84;7396378;19;20026;-68
2022/05/31 06:29:19;;;;;;;3.22;1.90;;;;;;;10.09;73.19;101034.19;7393665;19;20489;-67
2022/05/31 06:31:48;;;;;;;3.35;1.70;;;;;;;10.22;72.68;101030.50;7393198;19;20371;-68
2022/05/31 06:34:16;;;;;;;2.85;1.92;;;;;;;10.35;72.24;101030.28;7395749;19;20022;-68
2022/05/31 06:36:45;;;;;;;5.35;2.00;;;;;;;10.48;71.68;101026.59;7396144;19;20018;-67
2022/05/31 06:39:14;;;;;;;6.47;1.73;;;;;;;10.62;71.16;101034.22;7394618;19;20018;-67
2022/05/31 06:41:44;;;;;;;4.63;1.40;;;;;;;10.73;69.26;101026.19;7394011;19;20014;-68
2022/05/31 06:44:12;;;;;;;2.58;1.48;;;;;;;10.86;68.91;101030.31;7394930;19;20019;-69
2022/05/31 06:46:40;;;;;;;4.28;1.73;;;;;;;10.96;68.33;101027.53;7394935;19;20372;-68
2022/05/31 06:49:09;;;;;;;3.42;1.70;;;;;;;11.07;67.79;101028.19;7395416;19;20102;-68
2022/05/31 06:57:04;;;;;;;3.67;1.50;;;;;;;11.36;66.12;101032.84;7396041;19;20014;-67
2022/05/31 06:59:32;;;;;;;2.28;1.65;;;;;;;11.46;65.72;101030.03;7394648;19;20039;-67
2022/05/31 07:02:04;;;;;;;5.18;3.13;;;;;;;11.54;65.53;101031.59;7394234;19;20484;-69
2022/05/31 07:04:32;;;;;;;3.72;1.80;;;;;;;11.62;65.22;101034.06;7395697;19;20073;-67
2022/05/31 07:07:00;;;;;;;4.07;1.65;;;;;;;11.74;64.86;101032.94;7395523;19;20031;-68
2022/05/31 07:09:29;;;;;;;2.47;1.42;;;;;;;11.82;64.76;101028.38;7394940;19;20038;-68
2022/05/31 07:12:00;;;;;;;3.40;1.42;;;;;;;11.93;64.30;101019.38;7395397;19;20039;-67
2022/05/31 07:14:29;;;;;;;3.30;1.80;;;;;;;12.04;64.10;101014.75;7393669;19;20014;-67
2022/05/31 07:16:57;;;;;;;4.20;1.60;;;;;;;12.14;63.96;101011.00;7392395;19;20485;-67
2022/05/31 07:19:25;;;;;;;2.92;1.35;;;;;;;12.24;63.23;101009.03;7392839;19;20027;-68
2022/05/31 07:21:54;;;;;;;2.15;1.30;;;;;;;12.34;63.08;101007.03;7392777;19;20057;-69
2022/05/31 07:24:22;;;;;;;2.83;1.65;;;;;;;12.44;62.65;101011.16;7393273;19;20477;-68
2022/05/31 07:26:50;;;;;;;2.20;1.42;;;;;;;12.52;62.59;101005.69;7394621;19;20014;-68
2022/05/31 07:29:21;;;;;;;3.85;1.85;;;;;;;12.63;61.93;101005.44;7393909;19;20115;-68
2022/05/31 07:31:49;;;;;;;3.63;1.20;;;;;;;12.73;61.57;101004.28;7392757;19;20015;-67
2022/05/31 07:34:19;;;;;;;2.95;1.20;;;;;;;12.79;61.03;100997.97;7393933;19;20035;-68
2022/05/31 07:36:48;;;;;;;3.38;1.35;;;;;;;12.87;61.09;101002.13;7393739;19;20379;-67
2022/05/31 07:39:20;;;;;;;4.20;2.05;;;;;;;12.95;60.73;101003.69;7391624;19;20026;-67
2022/05/31 07:41:49;;;;;;;3.10;1.75;;;;;;;13.05;60.56;101007.81;7392562;19;20036;-68
2022/05/31 07:44:21;;;;;;;4.10;2.10;;;;;;;13.15;60.24;100997.88;7393855;19;20027;-68
2022/05/31 07:46:49;;;;;;;4.38;1.85;;;;;;;13.28;59.91;100996.63;7394322;19;20015;-68
2022/05/31 07:49:17;;;;;;;5.70;2.22;;;;;;;13.41;59.69;100991.88;7391976;19;20040;-68
2022/05/31 07:51:46;;;;;;;4.10;2.15;;;;;;;13.58;59.18;100995.78;7392229;19;20110;-68
2022/05/31 07:54:14;;;;;;;4.80;1.90;;;;;;;13.68;58.27;100995.44;7390629;19;20502;-68
2022/05/31 07:56:50;;;;;;;8.68;4.22;;;;;;;13.78;58.18;100989.91;7391857;19;20023;-68
2022/05/31 07:59:21;;;;;;;2.00;1.40;;;;;;;13.89;58.24;100995.72;7392967;19;20027;-68
2022/05/31 08:01:49;;;;;;;4.38;1.58;;;;;;;13.96;58.13;100989.34;7391187;19;20014;-68
2022/05/31 08:04:17;;;;;;;2.50;2.00;;;;;;;14.09;57.10;100988.91;7393383;19;20023;-68
2022/05/31 08:06:45;;;;;;;4.80;1.45;;;;;;;14.21;57.00;100977.13;7392691;19;20367;-68
2022/05/31 08:09:13;;;;;;;4.93;1.80;;;;;;;14.32;56.45;100985.53;7391008;19;20023;-68
2022/05/31 08:11:41;;;;;;;2.88;1.73;;;;;;;14.44;55.79;100984.25;7393013;19;20037;-68
2022/05/31 08:14:09;;;;;;;5.97;1.83;;;;;;;14.56;55.39;100977.66;7398405;19;20379;-68
2022/05/31 08:16:40;;;;;;;3.92;1.80;;;;;;;14.68;54.86;100976.44;7398077;19;20011;-68
2022/05/31 08:19:09;;;;;;;3.95;2.60;;;;;;;14.79;54.89;100969.84;7400559;19;20015;-68
2022/05/31 08:21:37;;;;;;;4.68;1.70;;;;;;;14.94;54.32;100970.22;7397686;19;20026;-69
2022/05/31 08:24:08;;;;;;;5.43;2.20;;;;;;;15.04;54.05;100971.59;7398449;19;20036;-68
2022/05/31 08:26:42;;;;;;;2.83;1.60;;;;;;;15.14;53.66;100969.50;7400772;19;20022;-68
2022/05/31 08:29:11;;;;;;;6.13;2.95;;;;;;;15.23;53.39;100963.00;7397508;19;20373;-68
2022/05/31 08:31:41;;;;;;;4.35;2.40;;;;;;;15.35;52.96;100966.94;7396861;19;20435;-69
2022/05/31 08:34:10;;;;;;;5.03;1.83;;;;;;;15.42;52.50;100964.00;7399319;19;20039;-68
2022/05/31 08:36:38;;;;;;;2.70;1.77;;;;;;;15.51;51.82;100964.59;7399417;19;20036;-68
2022/05/31 08:39:06;;;;;;;3.60;1.80;;;;;;;15.61;51.89;100956.22;7398789;19;20035;-68
2022/05/31 08:41:42;;;;;;;3.85;1.65;;;;;;;15.72;51.48;100953.16;7397675;19;20109;-69
2022/05/31 08:44:20;;;;;;;2.03;1.50;;;;;;;15.84;50.67;100950.97;7399777;19;20026;-68
2022/05/31 08:47:11;;;;;;;2.72;1.60;;;;;;;15.93;49.49;100948.78;7397514;19;20026;-68
2022/05/31 08:52:46;;;;;;;2.80;1.30;;;;;;;15.98;48.54;100948.63;7395053;19;20010;-68
2022/05/31 08:58:07;;;;;;;2.63;1.40;;;;;;;16.08;49.50;100939.38;7398760;19;20014;-68
2022/05/31 09:00:39;;;;;;;3.63;1.50;;;;;;;16.19;49.28;100949.50;7397103;19;20025;-67
2022/05/31 09:03:17;;;;;;;8.95;3.47;;;;;;;16.31;48.56;100931.41;7397137;19;20019;-68
2022/05/31 09:05:52;;;;;;;3.03;1.80;;;;;;;16.41;48.37;100922.97;7399246;19;20026;-67
2022/05/31 09:08:26;;;;;;;1.80;1.50;;;;;;;16.50;48.23;100918.22;7396949;19;20026;-67
2022/05/31 09:11:04;;;;;;;3.83;1.33;;;;;;;16.61;48.04;100918.59;7396084;19;20097;-68
2022/05/31 09:13:43;;;;;;;2.38;1.45;;;;;;;16.74;47.82;100925.09;7396868;19;20018;-68
2022/05/31 09:16:19;;;;;;;3.60;1.75;;;;;;;16.92;47.83;100925.19;7398492;19;20433;-68
2022/05/31 09:18:53;;;;;;;4.75;1.48;;;;;;;17.07;46.59;100921.88;7399240;19;20020;-68
2022/05/31 09:21:27;;;;;;;3.30;1.67;;;;;;;17.15;46.14;100920.63;7396389;19;20039;-67
2022/05/31 09:23:56;;;;;;;;;;;;;;;17.20;46.17;100921.25;7396351;19;20023;-68
2022/05/31 09:27:01;;;;;;;2.38;1.33;;;;;;;17.24;46.13;100922.88;7395311;19;19919;-67
2022/05/31 09:29:38;;;;;;;2.25;1.48;;;;;;;17.29;46.33;100919.97;7397414;19;20039;-67
2022/05/31 09:32:17;;;;;;;3.35;1.42;;;;;;;17.32;45.40;100919.84;7396019;19;20019;-69
2022/05/31 09:35:20;;;;;;;3.03;1.55;;;;;;;17.31;45.19;100912.81;7398206;19;20019;-67
2022/05/31 09:38:05;;;;;;;3.20;1.60;;;;;;;17.29;44.54;100914.69;7394181;19;20028;-68
2022/05/31 09:40:43;;;;;;;2.55;1.40;;;;;;;17.26;45.23;100911.25;7395506;19;20023;-68
2022/05/31 09:43:25;;;;;;;3.95;1.80;;;;;;;17.24;45.39;100910.47;7397583;19;20505;-68
2022/05/31 09:45:58;;;;;;;3.05;2.00;;;;;;;17.24;45.13;100902.50;7396073;19;20022;-67
2022/05/31 09:48:27;;;;;;;5.20;1.60;;;;;;;17.27;45.46;100896.19;7398660;19;20019;-68
2022/05/31 09:51:03;;;;;;;4.63;1.45;;;;;;;17.30;45.32;100896.06;7396087;19;20018;-68
2022/05/31 09:59:12;;;;;;;3.33;1.20;;;;;;;17.42;44.20;100884.84;7396960;19;20122;-68
2022/05/31 10:01:46;;;;;;;3.45;1.13;;;;;;;17.49;44.08;100887.19;7397228;19;20056;-68
2022/05/31 10:04:15;;;;;;;;;;;;;;;17.56;43.99;100881.53;7398520;19;20018;-68
2022/05/31 10:07:05;;;;;;;1.95;0.90;;;;;;;17.67;42.47;100878.34;7397446;19;19939;-68
2022/05/31 10:09:36;;;;;;;2.92;1.13;;;;;;;17.80;43.07;100880.41;7395437;19;20018;-68
2022/05/31 10:12:08;;;;;;;2.55;1.02;;;;;;;17.92;42.47;100882.44;7396899;19;20365;-70
2022/05/31 10:14:38;;;;;;;3.15;1.10;;;;;;;18.05;42.12;100874.75;7397215;19;20432;-70
2022/05/31 10:17:29;;;;;;;3.42;0.90;;;;;;;18.14;41.26;100865.47;7397340;19;20026;-69
2022/05/31 10:20:12;;;;;;;3.47;1.40;;;;;;;18.19;41.17;100863.41;7395414;19;20018;-69
2022/05/31 10:22:51;;;;;;;2.53;0.80;;;;;;;18.27;41.06;100863.03;7394658;19;20029;-69
2022/05/31 10:25:22;;;;;;;1.92;1.00;;;;;;;18.33;41.74;100860.03;7395175;19;20022;-69
2022/05/31 10:27:50;;;;;;;2.72;1.20;;;;;;;18.44;41.49;100863.00;7392909;19;20035;-69
2022/05/31 10:30:23;;;;;;;1.00;0.88;;;;;;;18.52;40.63;100854.63;7393123;19;20018;-69
2022/05/31 10:32:54;;;;;;;1.05;0.88;;;;;;;18.60;40.22;100852.38;7395548;19;20052;-69
2022/05/31 10:35:26;;;;;;;1.70;1.25;;;;;;;18.67;39.83;100856.44;7392920;19;20484;-69
2022/05/31 10:38:04;;;;;;;1.35;0.85;;;;;;;18.69;39.68;100846.59;7393513;19;20509;-68
2022/05/31 10:40:41;;;;;;;2.03;1.10;;;;;;;18.75;39.31;100855.16;7393231;19;20368;-68
2022/05/31 10:43:27;;;;;;;2.33;1.30;;;;;;;18.79;39.49;100852.28;7395425;19;20019;-70
2022/05/31 10:45:56;;;;;;;6.82;1.52;;;;;;;18.87;39.60;100844.72;7393610;19;20464;-69
2022/05/31 10:48:25;;;;;;;2.20;1.13;;;;;;;18.97;39.75;100837.13;7395070;19;20025;-69
2022/05/31 10:51:00;;;;;;;3.47;1.10;;;;;;;19.09;39.03;100832.06;7393504;19;20151;-69
2022/05/31 10:53:42;;;;;;;2.25;1.10;;;;;;;19.21;39.22;100831.38;7394874;19;20022;-70
2022/05/31 10:56:15;;;;;;;3.78;1.00;;;;;;;19.36;39.17;100830.50;7393415;19;20027;-70
2022/05/31 10:58:58;;;;;;;2.35;1.20;;;;;;;19.55;38.98;100829.47;7395567;19;20019;-70
2022/05/31 11:01:49;;;;;;;2.70;1.38;;;;;;;19.71;38.60;100824.06;7394526;19;20014;-69
2022/05/31 11:04:36;;;;;;;2.20;1.23;;;;;;;19.83;38.51;100819.88;7394837;19;20022;-70
2022/05/31 11:07:18;;;;;;;3.25;1.02;;;;;;;19.90;38.29;100807.88;7393311;19;20033;-69
2022/05/31 11:13:01;;;;;;;1.60;1.10;;;;;;;20.09;37.06;100801.47;7395133;19;20013;-69
2022/05/31 11:15:42;;;;;;;3.33;1.25;;;;;;;20.16;35.88;100797.47;7393615;19;20035;-69
2022/05/31 11:18:23;;;;;;;3.08;0.90;;;;;;;20.23;34.57;100800.63;7393216;19;20491;-69
2022/05/31 11:20:58;;;;;;;2.45;1.20;;;;;;;20.22;35.63;100794.44;7391554;19;20015;-69
2022/05/31 11:23:44;;;;;;;3.17;1.50;;;;;;;20.29;35.14;100794.91;7393973;19;20036;-69
2022/05/31 11:26:38;;;;;;;4.03;1.20;;;;;;;20.43;35.65;100794.91;7393844;19;20025;-70
2022/05/31 11:29:18;;;;;;;3.03;1.33;;;;;;;20.54;35.05;100798.72;7392939;19;20018;-70
2022/05/31 11:31:56;;;;;;;5.88;1.70;;;;;;;20.64;34.72;100797.19;7394202;19;20019;-70
2022/05/31 11:34:41;;;;;;;3.30;1.52;;;;;;;20.76;34.00;100796.44;7393601;19;20015;-70
2022/05/31 11:37:35;;;;;;;4.40;1.20;;;;;;;20.89;33.24;100796.50;7391722;19;20018;-69
2022/05/31 11:40:20;;;;;;;2.83;1.30;;;;;;;21.05;33.72;100783.00;7392332;19;20018;-69
2022/05/31 11:43:23;;;;;;;2.33;1.15;;;;;;;21.20;33.65;100790.97;7391030;19;20485;-70
2022/05/31 11:45:58;;;;;;;5.53;1.30;;;;;;;21.28;34.38;100783.31;7391601;19;20384;-69
2022/05/31 11:48:42;;;;;;;2.80;0.98;;;;;;;21.38;33.40;100771.09;7399977;19;21035;-70
2022/05/31 11:51:19;;;;;;;2.33;0.95;;;;;;;21.44;33.10;100770.66;7399092;19;20372;-70
2022/05/31 11:54:08;;;;;;;3.85;1.00;;;;;;;21.54;32.44;100765.56;7401944;19;20019;-69
2022/05/31 11:56:43;;;;;;;1.83;0.75;;;;;;;21.67;32.89;100765.59;7398381;19;20027;-69
2022/05/31 11:59:19;;;;;;;2.33;1.25;;;;;;;21.85;32.30;100771.53;7400899;19;20019;-69
2022/05/31 12:01:55;;;;;;;3.00;1.10;;;;;;;22.00;31.82;100766.91;7400438;19;20010;-69
2022/05/31 12:04:29;;;;;;;3.97;1.20;;;;;;;22.16;32.16;100758.69;7401488;19;20014;-70
2022/05/31 12:07:04;;;;;;;3.35;1.10;;;;;;;22.25;32.45;100757.19;7401513;19;20026;-71
2022/05/31 12:09:40;;;;;;;4.30;1.63;;;;;;;22.33;31.34;100756.63;7399805;19;20018;-71
2022/05/31 12:12:14;;;;;;;1.38;1.02;;;;;;;22.39;32.29;100767.78;7403012;19;20085;-70
2022/05/31 12:14:50;;;;;;;3.60;1.00;;;;;;;22.49;31.70;100759.94;7402519;19;20025;-69